Time;durP1;ratioP1;P1;durP2;ratioP2;P2;SDS_P1;SDS_P2;PMS_P1;PMS_P2;Temp;Humidity;BMP_temperature;BMP_pressure;BME280_temperature;BME280_humidity;BME280_pressure;Samples;Min_cycle;Max_cycle;Signal;HPM_P1;HPM_P2
2022/02/16 00:01:40;;;;;;;21.30;18.88;;;9.10;96.70;;;;;;5020814;28;20037;-83
2022/02/16 00:04:09;;;;;;;20.52;18.15;;;9.20;96.70;;;;;;5019446;28;20095;-83
2022/02/16 00:06:38;;;;;;;22.95;18.75;;;9.30;96.70;;;;;;5022986;28;20053;-82
2022/02/16 00:09:06;;;;;;;21.40;18.13;;;9.20;96.70;;;;;;5038895;28;20132;-84
2022/02/16 00:11:36;;;;;;;21.90;19.00;;;9.30;96.70;;;;;;5021799;28;20076;-83
2022/02/16 00:14:04;;;;;;;20.17;18.00;;;9.30;96.70;;;;;;5022747;28;20034;-83
2022/02/16 00:16:33;;;;;;;21.83;19.42;;;9.30;96.70;;;;;;5023051;28;20072;-83
2022/02/16 00:19:01;;;;;;;21.10;17.88;;;9.20;96.70;;;;;;5019764;28;20045;-83
2022/02/16 00:21:29;;;;;;;20.83;18.38;;;9.10;96.70;;;;;;5024940;28;20041;-82
2022/02/16 00:23:58;;;;;;;22.40;19.38;;;9.20;96.70;;;;;;5022764;28;20046;-82
2022/02/16 00:26:26;;;;;;;23.80;21.00;;;9.20;96.70;;;;;;5024987;28;20042;-83
2022/02/16 00:28:56;;;;;;;25.15;21.40;;;9.30;96.70;;;;;;5006673;28;20586;-83
2022/02/16 00:31:24;;;;;;;23.67;20.13;;;9.30;96.70;;;;;;5022400;28;20053;-83
2022/02/16 00:33:52;;;;;;;25.48;20.73;;;9.30;96.70;;;;;;5057977;28;20040;-83
2022/02/16 00:36:21;;;;;;;25.25;21.55;;;9.30;96.70;;;;;;5024887;28;20118;-83
2022/02/16 00:38:49;;;;;;;24.00;21.27;;;9.10;96.70;;;;;;5023559;28;20513;-83
2022/02/16 00:41:17;;;;;;;23.77;20.88;;;8.90;96.70;;;;;;5019550;28;20054;-83
2022/02/16 00:43:45;;;;;;;24.15;20.30;;;9.00;96.70;;;;;;5021613;28;20046;-82
2022/02/16 00:46:15;;;;;;;22.92;20.42;;;9.00;96.70;;;;;;5008404;28;20045;-82
2022/02/16 00:48:44;;;;;;;23.35;19.70;;;8.90;96.70;;;;;;5025959;28;20045;-83
2022/02/16 00:51:13;;;;;;;22.65;20.23;;;8.80;96.70;;;;;;5020571;28;20056;-83
2022/02/16 00:53:42;;;;;;;22.27;19.90;;;8.80;96.70;;;;;;5024680;28;20088;-83
2022/02/16 00:56:10;;;;;;;23.08;20.25;;;8.80;96.70;;;;;;5023470;28;20155;-83
2022/02/16 00:58:38;;;;;;;24.00;20.25;;;8.90;96.70;;;;;;5020167;28;20045;-83
2022/02/16 01:01:07;;;;;;;23.58;21.05;;;8.90;96.70;;;;;;5019213;28;20041;-83
2022/02/16 01:03:37;;;;;;;22.42;19.77;;;8.80;96.70;;;;;;5003818;28;20041;-83
2022/02/16 01:06:06;;;;;;;23.25;19.60;;;8.70;96.70;;;;;;5021441;28;20550;-83
2022/02/16 01:08:35;;;;;;;22.05;19.25;;;8.70;96.70;;;;;;5009782;28;20048;-83
2022/02/16 01:11:04;;;;;;;24.70;20.52;;;8.80;96.70;;;;;;5022292;28;20042;-82
2022/02/16 01:13:32;;;;;;;24.05;20.23;;;8.70;96.70;;;;;;5038283;28;20045;-83
2022/02/16 01:16:01;;;;;;;22.25;19.10;;;8.60;96.70;;;;;;5036290;28;20480;-82
2022/02/16 01:18:29;;;;;;;23.25;19.83;;;8.60;96.70;;;;;;5022032;28;20123;-82
2022/02/16 01:20:59;;;;;;;23.13;20.30;;;8.50;96.70;;;;;;5016649;28;20078;-83
2022/02/16 01:23:27;;;;;;;25.23;19.55;;;8.60;96.70;;;;;;5021435;28;20506;-83
2022/02/16 01:25:55;;;;;;;23.15;19.23;;;8.60;96.70;;;;;;5019925;28;20072;-83
2022/02/16 01:28:39;;;;;;;23.80;19.40;;;8.60;96.70;;;;;;5022012;28;20046;-83
2022/02/16 01:31:08;;;;;;;26.63;20.05;;;8.60;96.70;;;;;;5020382;28;20046;-82
2022/02/16 01:33:42;;;;;;;32.65;20.90;;;8.60;96.70;;;;;;5007153;28;20053;-83
2022/02/16 01:36:12;;;;;;;48.70;21.23;;;8.60;96.70;;;;;;5019713;28;20137;-83
2022/02/16 01:38:41;;;;;;;39.17;22.58;;;8.50;96.70;;;;;;5037529;28;20049;-83
2022/02/16 01:41:16;;;;;;;45.78;21.15;;;8.50;96.70;;;;;;5020988;28;20056;-83
2022/02/16 01:43:55;;;;;;;60.28;22.25;;;8.50;96.70;;;;;;5018969;28;20598;-83
2022/02/16 01:46:24;;;;;;;62.38;20.30;;;8.50;96.70;;;;;;5038267;28;20460;-83
2022/02/16 01:48:56;;;;;;;54.85;20.88;;;8.50;96.70;;;;;;5020848;28;20038;-82
2022/02/16 01:51:31;;;;;;;65.22;20.65;;;8.50;96.70;;;;;;5022645;28;20365;-83
2022/02/16 01:53:59;;;;;;;35.75;18.95;;;8.50;96.70;;;;;;5037645;28;20040;-83
2022/02/16 01:56:28;;;;;;;45.22;19.88;;;8.40;96.70;;;;;;5019238;28;20447;-83
2022/02/16 01:58:57;;;;;;;45.22;21.15;;;8.40;96.70;;;;;;5022064;28;20115;-82
2022/02/16 02:01:44;;;;;;;42.58;21.98;;;8.40;96.70;;;;;;5019148;28;20568;-82
2022/02/16 02:04:14;;;;;;;40.35;22.10;;;8.50;96.70;;;;;;5034475;28;20046;-83
2022/02/16 02:06:45;;;;;;;36.33;22.17;;;8.50;96.70;;;;;;5021388;28;20038;-83
2022/02/16 02:09:14;;;;;;;42.35;23.42;;;8.50;96.70;;;;;;5037812;28;20048;-83
2022/02/16 02:11:43;;;;;;;26.80;18.58;;;8.50;96.70;;;;;;5022378;28;20111;-83
2022/02/16 02:14:13;;;;;;;45.30;19.95;;;8.50;96.70;;;;;;5020473;28;20041;-83
2022/02/16 02:17:07;;;;;;;74.00;19.98;;;8.40;96.70;;;;;;5017805;28;20060;-82
2022/02/16 02:19:37;;;;;;;42.85;18.23;;;8.20;96.70;;;;;;5019765;28;20044;-83
2022/02/16 02:22:09;;;;;;;63.80;20.90;;;8.20;96.70;;;;;;5000406;28;20132;-83
2022/02/16 02:24:37;;;;;;;40.05;20.10;;;8.00;96.70;;;;;;5022159;28;20402;-83
2022/02/16 02:27:05;;;;;;;24.35;17.50;;;7.80;96.70;;;;;;5021726;28;20726;-82
2022/02/16 02:29:34;;;;;;;39.17;19.25;;;7.80;96.70;;;;;;5020391;28;20045;-83
2022/02/16 02:32:05;;;;;;;35.08;20.05;;;8.10;96.70;;;;;;5020340;28;20037;-82
2022/02/16 02:34:33;;;;;;;36.03;20.60;;;8.10;96.70;;;;;;5020465;28;20137;-82
2022/02/16 02:37:02;;;;;;;43.92;19.40;;;8.00;96.70;;;;;;5018933;28;20043;-83
2022/02/16 02:39:32;;;;;;;33.60;19.63;;;7.80;96.70;;;;;;5037072;28;20708;-83
2022/02/16 02:42:00;;;;;;;35.60;20.38;;;7.70;96.70;;;;;;5020583;28;20498;-83
2022/02/16 02:44:28;;;;;;;44.10;20.05;;;7.80;96.70;;;;;;5021418;28;20057;-82
2022/02/16 02:46:57;;;;;;;28.88;18.98;;;8.00;96.70;;;;;;5017779;28;20044;-82
2022/02/16 02:49:29;;;;;;;33.58;19.70;;;8.10;96.70;;;;;;5038896;28;20064;-82
2022/02/16 02:51:58;;;;;;;31.17;18.38;;;8.10;96.70;;;;;;5037207;28;20192;-83
2022/02/16 02:54:28;;;;;;;31.13;20.05;;;8.10;96.70;;;;;;5018979;28;20041;-82
2022/02/16 02:56:58;;;;;;;28.88;19.33;;;8.30;96.70;;;;;;5035376;28;20122;-82
2022/02/16 02:59:28;;;;;;;41.88;21.10;;;8.40;96.70;;;;;;5018177;28;20046;-82
2022/02/16 03:01:57;;;;;;;42.10;19.92;;;8.40;96.70;;;;;;5035223;28;20299;-83
2022/02/16 03:04:29;;;;;;;35.92;21.98;;;8.40;96.70;;;;;;5041016;28;20053;-83
2022/02/16 03:06:58;;;;;;;40.60;21.20;;;8.40;96.70;;;;;;5036359;28;20048;-83
2022/02/16 03:09:26;;;;;;;38.40;21.52;;;8.40;96.70;;;;;;5005409;28;20045;-83
2022/02/16 03:11:55;;;;;;;37.45;21.55;;;8.40;96.70;;;;;;5020021;28;20452;-82
2022/02/16 03:14:24;;;;;;;34.50;21.75;;;8.50;96.70;;;;;;5021894;28;20041;-83
2022/02/16 03:16:53;;;;;;;36.63;22.30;;;8.50;96.70;;;;;;5022182;28;20160;-83
2022/02/16 03:19:22;;;;;;;31.58;20.92;;;8.60;96.70;;;;;;5024792;28;20498;-83
2022/02/16 03:21:51;;;;;;;41.47;22.25;;;8.60;96.70;;;;;;5003008;28;20177;-84
2022/02/16 03:24:19;;;;;;;68.28;23.55;;;8.70;96.70;;;;;;5022087;28;20052;-83
2022/02/16 03:26:47;;;;;;;47.28;23.90;;;8.60;96.70;;;;;;5021409;28;20086;-83
2022/02/16 03:29:20;;;;;;;37.33;24.30;;;8.60;96.70;;;;;;5020091;28;20069;-83
2022/02/16 03:31:56;;;;;;;40.53;21.55;;;8.50;96.70;;;;;;5009282;28;20506;-83
2022/02/16 03:34:26;;;;;;;34.80;22.08;;;8.40;96.70;;;;;;5041591;28;20054;-83
2022/02/16 03:36:54;;;;;;;33.65;21.70;;;8.40;96.70;;;;;;5010661;28;20041;-83
2022/02/16 03:39:22;;;;;;;33.88;22.42;;;8.40;96.70;;;;;;5020470;28;20218;-83
2022/02/16 03:41:52;;;;;;;34.47;22.02;;;8.40;96.70;;;;;;5025447;28;20115;-83
2022/02/16 03:44:21;;;;;;;34.35;21.58;;;8.40;96.70;;;;;;5024087;28;20049;-83
2022/02/16 03:46:52;;;;;;;32.00;21.35;;;8.40;96.70;;;;;;5024932;28;20141;-84
2022/02/16 03:49:25;;;;;;;34.20;23.33;;;8.40;96.70;;;;;;5022729;28;20124;-83
2022/02/16 03:51:56;;;;;;;34.90;23.67;;;8.40;96.70;;;;;;5023052;28;20049;-83
2022/02/16 03:54:25;;;;;;;37.55;22.95;;;8.40;96.70;;;;;;5021039;28;20041;-83
2022/02/16 03:56:54;;;;;;;32.50;21.98;;;8.40;96.70;;;;;;5025009;28;20061;-83
2022/02/16 03:59:28;;;;;;;39.55;23.50;;;8.40;96.70;;;;;;5007747;28;20083;-83
2022/02/16 04:02:16;;;;;;;48.88;23.00;;;8.40;96.70;;;;;;5023842;28;20126;-83
2022/02/16 04:04:47;;;;;;;48.25;22.33;;;8.40;96.70;;;;;;5006724;28;20037;-83
2022/02/16 04:07:15;;;;;;;40.58;23.05;;;8.50;96.70;;;;;;5021255;28;20041;-83
2022/02/16 04:09:45;;;;;;;47.28;24.60;;;8.40;96.70;;;;;;5022295;28;20037;-83
2022/02/16 04:12:14;;;;;;;37.22;23.00;;;8.40;96.70;;;;;;5008094;28;20052;-81
2022/02/16 04:14:43;;;;;;;31.20;21.70;;;8.40;96.70;;;;;;5006375;28;20592;-83
2022/02/16 04:17:11;;;;;;;31.13;22.02;;;8.40;96.70;;;;;;5024457;28;20049;-83
2022/02/16 04:19:40;;;;;;;43.10;22.25;;;8.40;96.70;;;;;;5022914;28;20044;-83
2022/02/16 04:22:14;;;;;;;33.25;22.83;;;8.40;96.70;;;;;;5023114;28;20103;-83
2022/02/16 04:24:43;;;;;;;37.47;24.13;;;8.40;96.70;;;;;;5021322;28;20217;-83
2022/02/16 04:27:12;;;;;;;40.15;23.80;;;8.30;96.70;;;;;;5021341;28;20506;-83
2022/02/16 04:29:40;;;;;;;30.77;22.52;;;8.20;96.70;;;;;;5023697;28;20053;-82
2022/02/16 04:32:09;;;;;;;37.20;21.73;;;8.20;96.70;;;;;;5022351;28;20069;-83
2022/02/16 04:34:38;;;;;;;42.30;22.25;;;8.20;96.70;;;;;;5023916;28;20056;-84
2022/02/16 04:37:09;;;;;;;36.30;22.45;;;8.20;96.70;;;;;;5023283;28;20033;-83
2022/02/16 04:39:37;;;;;;;43.85;23.55;;;8.20;96.70;;;;;;5022694;28;20052;-83
2022/02/16 04:42:05;;;;;;;45.05;22.67;;;8.20;96.70;;;;;;5024022;28;20417;-83
2022/02/16 04:44:33;;;;;;;39.90;22.85;;;8.20;96.70;;;;;;5055212;28;20542;-83
2022/02/16 04:47:09;;;;;;;42.13;23.63;;;8.10;96.70;;;;;;5018900;28;20049;-83
2022/02/16 04:49:39;;;;;;;46.40;22.80;;;8.10;96.70;;;;;;5024625;28;20128;-81
2022/02/16 04:52:09;;;;;;;40.78;22.17;;;8.10;96.70;;;;;;5021570;28;20049;-81
2022/02/16 04:54:37;;;;;;;36.40;22.58;;;8.10;96.70;;;;;;5006388;28;20080;-81
2022/02/16 04:57:06;;;;;;;41.20;21.85;;;8.20;96.70;;;;;;5021219;28;20053;-81
2022/02/16 04:59:42;;;;;;;45.67;21.67;;;8.20;96.70;;;;;;5018685;28;20041;-81
2022/02/16 05:02:11;;;;;;;42.17;21.52;;;8.20;96.70;;;;;;5039059;28;20169;-81
2022/02/16 05:04:39;;;;;;;51.35;21.40;;;8.00;96.70;;;;;;5020757;28;20065;-81
2022/02/16 05:07:10;;;;;;;46.45;21.05;;;7.90;96.70;;;;;;5021257;28;20045;-81
2022/02/16 05:09:38;;;;;;;35.50;20.40;;;7.80;96.70;;;;;;5007037;28;20099;-81
2022/02/16 05:12:07;;;;;;;46.28;21.48;;;7.80;96.70;;;;;;5018356;28;20514;-81
2022/02/16 05:14:37;;;;;;;48.35;21.55;;;7.80;96.70;;;;;;5021663;28;20053;-81
2022/02/16 05:17:06;;;;;;;43.72;20.88;;;7.70;96.70;;;;;;5005094;28;20045;-81
2022/02/16 05:19:40;;;;;;;43.75;21.65;;;7.80;96.70;;;;;;5034091;28;20521;-81
2022/02/16 05:22:10;;;;;;;39.45;20.80;;;7.80;96.70;;;;;;5021584;28;20041;-82
2022/02/16 05:24:44;;;;;;;37.45;20.33;;;7.90;96.70;;;;;;5022143;28;20053;-81
2022/02/16 05:27:13;;;;;;;35.00;19.70;;;7.90;96.70;;;;;;5022675;28;20038;-81
2022/02/16 05:29:41;;;;;;;37.28;20.00;;;8.00;96.70;;;;;;5002946;28;20510;-81
2022/02/16 05:32:13;;;;;;;36.00;20.40;;;8.10;96.70;;;;;;5036081;28;20240;-81
2022/02/16 05:34:41;;;;;;;37.40;19.58;;;8.10;96.70;;;;;;5020307;28;20045;-81
2022/02/16 05:37:11;;;;;;;40.53;20.13;;;8.00;96.70;;;;;;5055318;28;20048;-81
2022/02/16 05:39:40;;;;;;;30.83;18.75;;;8.10;96.70;;;;;;5016805;28;20041;-81
2022/02/16 05:42:08;;;;;;;33.13;20.02;;;8.10;96.70;;;;;;5019438;28;20566;-82
2022/02/16 05:44:43;;;;;;;29.15;19.73;;;8.20;96.70;;;;;;5002871;28;20049;-81
2022/02/16 05:47:11;;;;;;;46.08;20.10;;;8.20;96.70;;;;;;5020507;28;20111;-82
2022/02/16 05:49:39;;;;;;;29.55;19.67;;;8.10;96.70;;;;;;5018717;28;20044;-82
2022/02/16 05:52:08;;;;;;;34.47;19.05;;;8.10;96.70;;;;;;5020230;28;20055;-82
2022/02/16 05:54:38;;;;;;;34.92;19.52;;;8.10;96.70;;;;;;5017341;28;20147;-81
2022/02/16 05:57:07;;;;;;;34.85;20.10;;;8.10;96.70;;;;;;5019450;28;20041;-82
2022/02/16 05:59:36;;;;;;;29.80;18.63;;;8.10;96.70;;;;;;5018018;28;20559;-82
2022/02/16 06:02:05;;;;;;;33.08;19.25;;;8.00;96.70;;;;;;5021190;28;20045;-81
2022/02/16 06:04:34;;;;;;;37.47;18.88;;;8.10;96.70;;;;;;5036208;28;20263;-82
2022/02/16 06:07:04;;;;;;;33.85;20.00;;;8.00;96.70;;;;;;5053104;28;20527;-82
2022/02/16 06:09:33;;;;;;;38.63;18.25;;;8.00;96.70;;;;;;5020339;28;20045;-81
2022/02/16 06:12:06;;;;;;;30.05;19.48;;;8.00;96.70;;;;;;5021820;28;20046;-82
2022/02/16 06:14:35;;;;;;;25.80;17.05;;;7.90;96.70;;;;;;5030438;28;20144;-81
2022/02/16 06:17:09;;;;;;;31.75;17.27;;;7.90;96.70;;;;;;5023110;28;20045;-82
2022/02/16 06:19:38;;;;;;;32.15;17.50;;;7.90;96.70;;;;;;5021258;28;20049;-81
2022/02/16 06:22:08;;;;;;;33.08;17.40;;;7.90;96.70;;;;;;5022472;28;20095;-82
2022/02/16 06:24:37;;;;;;;28.08;17.08;;;7.90;96.70;;;;;;5019352;28;20139;-82
2022/02/16 06:27:17;;;;;;;27.50;17.35;;;8.10;96.70;;;;;;5036211;28;20061;-82
2022/02/16 06:29:46;;;;;;;26.98;16.63;;;8.00;96.70;;;;;;5034639;28;20045;-82
2022/02/16 06:32:20;;;;;;;27.67;16.95;;;8.00;96.70;;;;;;5017348;28;20148;-82
2022/02/16 06:34:51;;;;;;;25.48;13.70;;;8.00;96.70;;;;;;5037338;28;20406;-82
2022/02/16 06:37:19;;;;;;;26.02;14.60;;;7.90;96.70;;;;;;5019694;28;20107;-81
2022/02/16 06:39:48;;;;;;;29.83;15.23;;;8.00;96.70;;;;;;5020251;28;20064;-82
2022/02/16 06:42:19;;;;;;;27.20;14.68;;;7.90;96.70;;;;;;5019533;28;20050;-81
2022/02/16 06:44:48;;;;;;;22.50;13.88;;;7.80;96.70;;;;;;5017727;28;20264;-82
2022/02/16 06:47:18;;;;;;;36.08;14.15;;;7.70;96.70;;;;;;5004891;28;20052;-81
2022/02/16 06:49:47;;;;;;;22.73;13.20;;;7.80;96.70;;;;;;5004845;28;20041;-82
2022/02/16 06:52:16;;;;;;;30.77;12.98;;;7.70;96.70;;;;;;5018892;28;20054;-81
2022/02/16 06:54:44;;;;;;;26.75;12.23;;;7.70;96.70;;;;;;5019737;28;20169;-81
2022/02/16 06:57:12;;;;;;;24.00;12.88;;;7.70;96.70;;;;;;5003736;28;20407;-82
2022/02/16 06:59:58;;;;;;;26.38;12.35;;;7.70;96.70;;;;;;5006764;28;20246;-84
2022/02/16 07:02:26;;;;;;;20.20;11.82;;;7.70;96.70;;;;;;5019988;28;20515;-82
2022/02/16 07:04:55;;;;;;;17.77;11.65;;;7.80;96.70;;;;;;5022881;28;20029;-85
2022/02/16 07:07:23;;;;;;;24.42;11.23;;;7.80;96.70;;;;;;5008568;28;20210;-84
2022/02/16 07:09:52;;;;;;;31.58;11.32;;;7.80;96.70;;;;;;5009334;28;20041;-83
2022/02/16 07:12:20;;;;;;;23.23;11.82;;;7.80;96.70;;;;;;5037067;28;20045;-83
2022/02/16 07:14:54;;;;;;;21.00;10.68;;;7.70;96.70;;;;;;5040521;28;20061;-82
2022/02/16 07:17:24;;;;;;;23.33;11.32;;;7.60;96.70;;;;;;5023257;28;20155;-82
2022/02/16 07:19:53;;;;;;;40.58;11.80;;;7.60;96.70;;;;;;5004574;28;20532;-82
2022/02/16 07:22:25;;;;;;;22.75;10.63;;;7.50;96.70;;;;;;5006412;28;20095;-83
2022/02/16 07:24:54;;;;;;;18.95;11.35;;;7.50;96.70;;;;;;5022991;28;20500;-84
2022/02/16 07:27:28;;;;;;;27.75;11.88;;;7.50;96.70;;;;;;5037895;28;20045;-86
2022/02/16 07:29:57;;;;;;;20.88;11.57;;;7.60;96.70;;;;;;5022455;28;20124;-83
2022/02/16 07:32:27;;;;;;;28.88;12.35;;;7.50;96.70;;;;;;5024176;28;20053;-83
2022/02/16 07:34:57;;;;;;;21.15;12.52;;;7.50;96.70;;;;;;5022479;28;20057;-85
2022/02/16 07:37:27;;;;;;;22.58;12.32;;;7.50;96.70;;;;;;5038562;28;20144;-83
2022/02/16 07:39:57;;;;;;;44.72;13.93;;;7.60;96.70;;;;;;5022918;28;20165;-85
2022/02/16 07:42:28;;;;;;;25.60;13.07;;;7.60;96.70;;;;;;5038693;28;20041;-86
2022/02/16 07:45:15;;;;;;;25.83;14.43;;;7.60;96.70;;;;;;5037539;28;20187;-86
2022/02/16 07:47:47;;;;;;;32.78;13.43;;;7.60;96.70;;;;;;5023270;28;20542;-85
2022/02/16 07:50:16;;;;;;;23.55;13.57;;;7.50;96.70;;;;;;5024531;28;20049;-84
2022/02/16 07:53:23;;;;;;;30.58;12.88;;;7.50;96.70;;;;;;5002185;28;20525;-84
2022/02/16 07:55:54;;;;;;;18.83;12.85;;;7.60;96.70;;;;;;4971228;28;20480;-84
2022/02/16 07:58:30;;;;;;;17.23;11.93;;;7.60;96.70;;;;;;4992843;28;20454;-85
2022/02/16 08:00:58;;;;;;;16.13;11.43;;;7.70;96.70;;;;;;5039139;28;20064;-85
2022/02/16 08:03:29;;;;;;;15.43;11.88;;;7.70;96.70;;;;;;5022256;28;20579;-84
2022/02/16 08:05:57;;;;;;;20.23;12.07;;;7.70;96.70;;;;;;5019841;28;20050;-86
2022/02/16 08:08:26;;;;;;;16.67;12.32;;;7.80;96.70;;;;;;5024456;28;20052;-83
2022/02/16 08:10:55;;;;;;;20.50;11.25;;;7.70;96.70;;;;;;5007005;28;20052;-83
2022/02/16 08:13:24;;;;;;;16.67;11.95;;;7.70;96.70;;;;;;5023648;28;20510;-84
2022/02/16 08:16:21;;;;;;;16.42;12.25;;;7.80;96.70;;;;;;5040471;28;20195;-84
2022/02/16 08:19:02;;;;;;;22.75;13.38;;;7.90;96.70;;;;;;5023015;28;20049;-83
2022/02/16 08:21:33;;;;;;;16.60;11.50;;;8.00;96.70;;;;;;5023830;28;20258;-82
2022/02/16 08:24:04;;;;;;;16.77;12.02;;;8.00;96.70;;;;;;5022295;28;20315;-85
2022/02/16 08:26:33;;;;;;;17.67;12.23;;;8.00;96.70;;;;;;5021420;28;20045;-83
2022/02/16 08:29:03;;;;;;;18.17;12.25;;;7.90;96.70;;;;;;5004051;28;20041;-84
2022/02/16 08:31:35;;;;;;;22.27;11.18;;;8.00;96.70;;;;;;5022355;28;20100;-83
2022/02/16 08:34:41;;;;;;;18.33;11.85;;;8.10;96.70;;;;;;4973852;28;20061;-83
2022/02/16 08:37:14;;;;;;;22.80;11.90;;;8.10;96.70;;;;;;5017836;28;20505;-83
2022/02/16 08:39:43;;;;;;;24.02;12.82;;;8.10;96.70;;;;;;5038477;28;20069;-83
2022/02/16 08:42:11;;;;;;;23.67;12.13;;;7.90;96.70;;;;;;5023447;28;20043;-84
2022/02/16 08:44:40;;;;;;;19.88;12.43;;;7.90;96.70;;;;;;5020792;28;20041;-84
2022/02/16 08:47:09;;;;;;;24.35;13.07;;;7.90;96.70;;;;;;5020326;28;20044;-83
2022/02/16 08:49:43;;;;;;;19.58;12.05;;;7.90;96.70;;;;;;5022311;28;20049;-83
2022/02/16 08:52:13;;;;;;;17.40;11.80;;;8.00;96.70;;;;;;5021600;28;20206;-84
2022/02/16 08:54:41;;;;;;;19.40;12.65;;;8.10;96.70;;;;;;5017052;28;20049;-84
2022/02/16 08:57:09;;;;;;;16.05;12.30;;;8.20;96.70;;;;;;5022117;28;20064;-84
2022/02/16 08:59:37;;;;;;;19.42;12.15;;;8.30;96.70;;;;;;5023243;28;20034;-84
2022/02/16 09:02:05;;;;;;;19.60;12.77;;;8.40;96.70;;;;;;5021197;28;20272;-84
2022/02/16 09:04:33;;;;;;;20.55;12.52;;;8.30;96.70;;;;;;5010265;28;20042;-84
2022/02/16 09:09:50;;;;;;;22.70;12.70;;;8.20;96.70;;;;;;5038531;28;20068;-81
2022/02/16 09:12:18;;;;;;;18.38;13.45;;;8.10;96.70;;;;;;5023485;28;20511;-83
2022/02/16 09:14:46;;;;;;;21.05;12.60;;;8.10;96.70;;;;;;5021773;28;20533;-83
2022/02/16 09:17:14;;;;;;;17.00;11.63;;;8.20;96.70;;;;;;5020441;28;20974;-84
2022/02/16 09:19:42;;;;;;;20.58;13.13;;;8.20;96.70;;;;;;5038004;28;20088;-84
2022/02/16 09:22:12;;;;;;;18.58;13.85;;;8.10;96.70;;;;;;5020237;28;20100;-84
2022/02/16 09:24:40;;;;;;;16.05;12.13;;;8.30;96.70;;;;;;5035556;28;20576;-84
2022/02/16 09:27:10;;;;;;;22.52;13.75;;;8.50;96.70;;;;;;5004456;28;20040;-84
2022/02/16 09:29:38;;;;;;;20.27;14.68;;;8.60;96.70;;;;;;5021286;28;20054;-84
2022/02/16 09:32:06;;;;;;;26.98;15.55;;;8.60;96.70;;;;;;5022093;28;20048;-84
2022/02/16 09:34:43;;;;;;;21.08;15.77;;;8.50;96.70;;;;;;5023903;28;20140;-84
2022/02/16 09:37:19;;;;;;;20.42;14.75;;;8.50;96.70;;;;;;5022694;28;20052;-84
2022/02/16 09:39:47;;;;;;;23.17;15.00;;;8.60;96.70;;;;;;5023507;28;20076;-85
2022/02/16 09:42:16;;;;;;;24.55;15.77;;;8.70;96.70;;;;;;5024584;28;20041;-85
2022/02/16 09:44:47;;;;;;;24.10;16.42;;;8.80;96.70;;;;;;5021970;28;20045;-84
2022/02/16 09:47:15;;;;;;;24.17;16.55;;;8.80;96.70;;;;;;5027541;28;20045;-84
2022/02/16 09:49:43;;;;;;;22.08;15.13;;;8.90;96.70;;;;;;5021730;28;20056;-84
2022/02/16 09:52:14;;;;;;;25.83;16.40;;;9.00;96.70;;;;;;5022977;28;20136;-84
2022/02/16 09:54:42;;;;;;;24.85;15.50;;;9.20;96.70;;;;;;5036728;28;20253;-84
2022/02/16 09:57:12;;;;;;;23.15;15.77;;;9.00;96.70;;;;;;5020614;28;20046;-84
2022/02/16 09:59:43;;;;;;;20.42;15.15;;;9.20;96.70;;;;;;5022822;28;20128;-85
2022/02/16 10:02:15;;;;;;;20.33;14.63;;;9.30;96.70;;;;;;5021265;28;20063;-84
2022/02/16 10:04:54;;;;;;;22.13;16.15;;;9.50;96.70;;;;;;5022971;28;20056;-86
2022/02/16 10:07:24;;;;;;;23.98;15.65;;;9.40;96.70;;;;;;5023765;28;20391;-84
2022/02/16 10:09:53;;;;;;;25.27;16.35;;;9.40;96.70;;;;;;5022826;28;20057;-84
2022/02/16 10:12:32;;;;;;;25.52;17.77;;;9.40;96.70;;;;;;5020702;28;20044;-82
2022/02/16 10:15:01;;;;;;;21.35;15.55;;;9.40;96.70;;;;;;5023616;28;20041;-84
2022/02/16 10:17:30;;;;;;;24.98;15.95;;;9.40;96.70;;;;;;5022954;28;20156;-83
2022/02/16 10:19:59;;;;;;;22.88;15.93;;;9.40;96.70;;;;;;5023689;28;20038;-84
2022/02/16 10:22:31;;;;;;;20.38;14.95;;;9.30;96.70;;;;;;5020947;28;20057;-84
2022/02/16 10:25:10;;;;;;;20.85;14.80;;;9.30;96.70;;;;;;5022362;28;20159;-84
2022/02/16 10:28:07;;;;;;;22.02;15.18;;;9.40;96.70;;;;;;5018955;28;20052;-83
2022/02/16 10:30:38;;;;;;;20.58;15.27;;;9.50;96.70;;;;;;5023549;28;20608;-84
2022/02/16 10:33:20;;;;;;;20.15;15.25;;;9.50;96.70;;;;;;5036735;28;20065;-83
2022/02/16 10:35:48;;;;;;;18.50;13.98;;;9.50;96.70;;;;;;5039250;28;20055;-83
2022/02/16 10:38:17;;;;;;;21.23;15.77;;;9.60;96.70;;;;;;5021860;28;20038;-83
2022/02/16 10:41:03;;;;;;;24.08;16.08;;;9.60;96.70;;;;;;5022393;28;20041;-84
2022/02/16 10:43:32;;;;;;;20.95;14.52;;;9.70;96.70;;;;;;5023753;28;20053;-84
2022/02/16 10:46:14;;;;;;;23.23;15.00;;;9.90;96.70;;;;;;5022191;28;20057;-84
2022/02/16 10:48:43;;;;;;;21.15;15.02;;;10.10;96.70;;;;;;5028163;28;20041;-83
2022/02/16 10:51:18;;;;;;;23.50;16.02;;;10.30;96.70;;;;;;5025418;28;20561;-84
2022/02/16 10:53:49;;;;;;;20.58;14.88;;;10.40;96.70;;;;;;5027734;28;20065;-85
2022/02/16 10:56:18;;;;;;;21.58;16.50;;;10.50;96.70;;;;;;5023687;28;20361;-84
2022/02/16 10:58:45;;;;;;;24.23;17.00;;;10.60;96.70;;;;;;5023987;28;20503;-84
2022/02/16 11:01:17;;;;;;;23.63;17.35;;;10.80;96.70;;;;;;5025799;28;20510;-86
2022/02/16 11:03:51;;;;;;;21.88;15.43;;;10.70;96.70;;;;;;5026389;28;20047;-82
2022/02/16 11:06:21;;;;;;;22.40;16.60;;;10.70;96.70;;;;;;5023254;28;20045;-84
2022/02/16 11:08:51;;;;;;;20.35;14.45;;;10.70;96.70;;;;;;5043335;28;20046;-85
2022/02/16 11:11:23;;;;;;;20.20;14.88;;;10.80;96.70;;;;;;5026718;28;20033;-84
2022/02/16 11:13:57;;;;;;;18.40;13.98;;;10.80;96.70;;;;;;5024900;28;20221;-84
2022/02/16 11:16:27;;;;;;;20.60;14.77;;;10.80;96.70;;;;;;5041222;28;20103;-83
2022/02/16 11:18:59;;;;;;;18.58;13.80;;;10.90;96.70;;;;;;5025819;28;20119;-84
2022/02/16 11:21:31;;;;;;;20.55;14.43;;;11.00;96.70;;;;;;5024829;28;20041;-84
2022/02/16 11:24:00;;;;;;;19.00;13.15;;;11.20;96.70;;;;;;5022868;28;20049;-84
2022/02/16 11:26:41;;;;;;;16.02;12.60;;;11.30;96.70;;;;;;5021690;28;20033;-84
2022/02/16 11:29:41;;;;;;;16.60;12.50;;;11.30;96.70;;;;;;5024164;28;20045;-84
2022/02/16 11:32:34;;;;;;;14.90;12.52;;;11.40;96.70;;;;;;5024070;28;20037;-83
2022/02/16 11:35:23;;;;;;;16.48;12.30;;;11.70;96.70;;;;;;5038468;28;20045;-83
2022/02/16 11:38:06;;;;;;;16.52;12.20;;;11.80;96.70;;;;;;5040053;28;20049;-84
2022/02/16 11:40:37;;;;;;;17.67;12.25;;;11.90;96.70;;;;;;5023567;28;20053;-85
2022/02/16 11:43:06;;;;;;;18.50;12.90;;;11.90;96.70;;;;;;5025691;28;20067;-84
2022/02/16 11:45:51;;;;;;;16.90;12.95;;;12.00;96.70;;;;;;5022252;28;20095;-84
2022/02/16 11:48:44;;;;;;;16.85;12.05;;;12.10;96.70;;;;;;5020893;28;20069;-83
2022/02/16 11:51:33;;;;;;;14.98;11.40;;;12.30;96.70;;;;;;5021563;28;20038;-83
2022/02/16 11:54:34;;;;;;;18.75;13.50;;;12.50;96.70;;;;;;5025998;28;20499;-83
2022/02/16 11:57:38;;;;;;;14.32;11.35;;;12.60;96.70;;;;;;5018195;28;20045;-83
2022/02/16 12:00:26;;;;;;;12.50;9.45;;;12.70;96.70;;;;;;5024240;28;20108;-83
2022/02/16 12:03:15;;;;;;;10.75;9.10;;;12.60;96.70;;;;;;5018883;28;20049;-82
2022/02/16 12:05:53;;;;;;;11.70;8.85;;;12.70;96.70;;;;;;5021645;28;20298;-84
2022/02/16 12:08:22;;;;;;;11.30;9.00;;;13.00;96.70;;;;;;5025991;28;20069;-85
2022/02/16 12:10:52;;;;;;;12.05;8.57;;;13.10;96.70;;;;;;5022890;28;20045;-84
2022/02/16 12:13:33;;;;;;;9.60;7.78;;;13.30;96.70;;;;;;5023159;28;20073;-84
2022/02/16 12:16:05;;;;;;;9.77;7.13;;;13.50;96.70;;;;;;5053877;28;20392;-84
2022/02/16 12:18:34;;;;;;;7.70;5.70;;;13.40;96.70;;;;;;5020243;28;20314;-84
2022/02/16 12:21:05;;;;;;;7.47;6.00;;;13.60;96.70;;;;;;5021540;28;20099;-84
2022/02/16 12:23:40;;;;;;;6.20;5.30;;;13.70;96.70;;;;;;5023209;28;20052;-84
2022/02/16 12:26:11;;;;;;;5.55;4.82;;;13.80;96.70;;;;;;5008021;28;20045;-84
2022/02/16 12:28:49;;;;;;;5.68;4.80;;;13.90;96.70;;;;;;5021172;28;20404;-84
2022/02/16 12:31:17;;;;;;;5.57;4.10;;;13.90;96.70;;;;;;5022322;28;20049;-84
2022/02/16 12:33:57;;;;;;;4.82;4.32;;;13.80;96.70;;;;;;5022458;28;20425;-83
2022/02/16 12:36:28;;;;;;;5.80;4.75;;;14.00;96.70;;;;;;5022165;28;20053;-83
2022/02/16 12:38:59;;;;;;;4.63;4.10;;;14.10;96.70;;;;;;5024144;28;20434;-84
2022/02/16 12:41:27;;;;;;;6.47;4.15;;;14.10;96.70;;;;;;5025199;28;20068;-84
2022/02/16 12:43:59;;;;;;;5.60;3.67;;;14.10;96.70;;;;;;5018178;28;20522;-85
2022/02/16 12:46:29;;;;;;;4.95;4.15;;;14.20;96.70;;;;;;5039287;28;20056;-84
2022/02/16 12:48:58;;;;;;;4.28;3.80;;;14.40;96.70;;;;;;5019525;28;20056;-84
2022/02/16 12:51:30;;;;;;;4.38;3.60;;;14.60;96.70;;;;;;5025068;28;20422;-85
2022/02/16 12:54:09;;;;;;;4.40;3.97;;;14.70;96.70;;;;;;5037254;28;20045;-84
2022/02/16 12:56:39;;;;;;;4.32;3.60;;;14.80;96.70;;;;;;5038014;28;20626;-84
2022/02/16 12:59:15;;;;;;;5.30;3.28;;;14.80;96.70;;;;;;5020079;28;20099;-84
2022/02/16 13:01:44;;;;;;;4.60;3.33;;;14.90;96.70;;;;;;5019880;28;20041;-84